Time;durP1;ratioP1;P1;durP2;ratioP2;P2;SDS_P1;SDS_P2;PMS_P1;PMS_P2;Temp;Humidity;BMP_temperature;BMP_pressure;BME280_temperature;BME280_humidity;BME280_pressure;Samples;Min_cycle;Max_cycle;Signal;HPM_P1;HPM_P2
2023/06/29 00:01:25;;;;;;;1.33;1.05;;;17.70;99.90;;;;;;5043875;28;20041;-73
2023/06/29 00:03:52;;;;;;;3.22;2.45;;;17.70;99.90;;;;;;5044695;28;20427;-73
2023/06/29 00:06:18;;;;;;;5.07;2.67;;;17.70;99.90;;;;;;5045186;28;20076;-73
2023/06/29 00:08:44;;;;;;;4.35;1.83;;;17.70;99.90;;;;;;5045170;28;20045;-73
2023/06/29 00:11:09;;;;;;;1.42;1.30;;;17.70;99.90;;;;;;5045464;28;20052;-73
2023/06/29 00:13:36;;;;;;;3.05;1.92;;;17.70;99.90;;;;;;5044790;28;20088;-72
2023/06/29 00:16:02;;;;;;;6.47;2.78;;;17.70;99.90;;;;;;5044786;28;20091;-73
2023/06/29 00:18:32;;;;;;;3.67;1.70;;;17.70;99.90;;;;;;5045254;28;20377;-72
2023/06/29 00:21:00;;;;;;;1.40;1.25;;;17.70;99.90;;;;;;5044934;28;20512;-73
2023/06/29 00:23:26;;;;;;;3.72;2.42;;;17.70;99.90;;;;;;5044945;28;20057;-74
2023/06/29 00:25:55;;;;;;;1.73;1.63;;;17.70;99.90;;;;;;5045093;28;20053;-74
2023/06/29 00:28:21;;;;;;;2.05;1.35;;;17.70;99.90;;;;;;5045098;28;20057;-72
2023/06/29 00:30:46;;;;;;;5.07;2.08;;;17.70;99.90;;;;;;5045072;28;20518;-73
2023/06/29 00:33:12;;;;;;;2.72;1.77;;;17.70;99.90;;;;;;5044699;28;20174;-73
2023/06/29 00:35:38;;;;;;;8.55;3.47;;;17.80;99.90;;;;;;5044075;28;20045;-74
2023/06/29 00:38:03;;;;;;;2.42;2.00;;;17.70;99.90;;;;;;5045017;28;20044;-73
2023/06/29 00:40:29;;;;;;;4.07;2.55;;;17.60;99.90;;;;;;5045155;28;20052;-73
2023/06/29 00:42:55;;;;;;;4.35;2.70;;;17.70;99.90;;;;;;5045570;28;20052;-74
2023/06/29 00:45:21;;;;;;;2.05;1.60;;;17.60;99.90;;;;;;5044824;28;20037;-73
2023/06/29 00:47:47;;;;;;;2.55;2.17;;;17.60;99.90;;;;;;5044835;28;20132;-73
2023/06/29 00:50:13;;;;;;;2.78;2.17;;;17.60;99.90;;;;;;5044691;28;20076;-73
2023/06/29 00:52:40;;;;;;;3.00;2.28;;;17.60;99.90;;;;;;5044734;28;20045;-72
2023/06/29 00:55:06;;;;;;;2.40;2.20;;;17.60;99.90;;;;;;5044025;28;20041;-73
2023/06/29 00:57:32;;;;;;;6.47;1.90;;;17.60;99.90;;;;;;5044329;28;20462;-73
2023/06/29 01:00:00;;;;;;;6.75;1.60;;;17.60;99.90;;;;;;5043817;28;20129;-73
2023/06/29 01:02:40;;;;;;;6.22;2.03;;;17.60;99.90;;;;;;5044948;28;20048;-74
2023/06/29 01:05:11;;;;;;;0.55;0.52;;;17.60;99.90;;;;;;5044142;28;20119;-74
2023/06/29 01:07:51;;;;;;;1.77;1.67;;;17.60;99.90;;;;;;5024242;28;20503;-74
2023/06/29 01:10:23;;;;;;;3.22;1.67;;;17.60;99.90;;;;;;5025091;28;20045;-74
2023/06/29 01:12:50;;;;;;;7.65;3.30;;;17.50;99.90;;;;;;5024373;28;20081;-72
2023/06/29 01:15:16;;;;;;;2.88;1.75;;;17.60;99.90;;;;;;5042936;28;20423;-72
2023/06/29 01:17:44;;;;;;;2.42;1.73;;;17.60;99.90;;;;;;5044592;28;20048;-72
2023/06/29 01:20:11;;;;;;;2.70;1.95;;;17.50;99.90;;;;;;5044185;28;20095;-72
2023/06/29 01:22:41;;;;;;;2.33;1.58;;;17.60;99.90;;;;;;5044366;28;20044;-73
2023/06/29 01:25:08;;;;;;;1.88;1.63;;;17.50;99.90;;;;;;5043724;28;20529;-74
2023/06/29 01:27:34;;;;;;;4.35;2.08;;;17.50;99.90;;;;;;5044027;28;20056;-74
2023/06/29 01:30:01;;;;;;;1.52;1.42;;;17.50;99.90;;;;;;5044065;28;20048;-74
2023/06/29 01:32:35;;;;;;;3.38;1.85;;;17.50;99.90;;;;;;5044363;28;20091;-74
2023/06/29 01:35:02;;;;;;;1.95;1.42;;;17.50;99.90;;;;;;5043180;28;20056;-74
2023/06/29 01:37:36;;;;;;;8.30;3.72;;;17.50;99.90;;;;;;5043832;28;20045;-74
2023/06/29 01:40:07;;;;;;;2.40;1.92;;;17.50;99.90;;;;;;5043707;28;20053;-75
2023/06/29 01:42:34;;;;;;;3.30;2.92;;;17.50;99.90;;;;;;5043860;28;20059;-74
2023/06/29 01:45:01;;;;;;;3.10;1.52;;;17.50;99.90;;;;;;5042917;28;20040;-72
2023/06/29 01:47:28;;;;;;;3.85;2.38;;;17.60;99.90;;;;;;5043080;28;20053;-72
2023/06/29 01:49:54;;;;;;;3.03;1.98;;;17.60;99.90;;;;;;5043420;28;20041;-74
2023/06/29 01:52:20;;;;;;;2.28;1.67;;;17.60;99.90;;;;;;5043662;28;20510;-72
2023/06/29 01:54:46;;;;;;;3.08;1.60;;;17.60;99.90;;;;;;5042751;28;20041;-75
2023/06/29 01:57:12;;;;;;;1.77;1.65;;;17.60;99.90;;;;;;5043638;28;20040;-75
2023/06/29 01:59:38;;;;;;;2.72;1.30;;;17.60;99.90;;;;;;5043515;28;20147;-75
2023/06/29 02:02:05;;;;;;;4.18;2.17;;;17.60;99.90;;;;;;5042948;28;20040;-74
2023/06/29 02:04:31;;;;;;;2.97;2.15;;;17.60;99.90;;;;;;5043127;28;20053;-75
2023/06/29 02:06:56;;;;;;;5.22;2.05;;;17.60;99.90;;;;;;5043218;28;20415;-74
2023/06/29 02:09:22;;;;;;;4.53;2.33;;;17.60;99.90;;;;;;5043224;28;20053;-75
2023/06/29 02:11:48;;;;;;;5.32;2.42;;;17.70;99.90;;;;;;5041967;28;20052;-74
2023/06/29 02:14:16;;;;;;;1.05;0.90;;;17.60;99.90;;;;;;5042746;28;20044;-74
2023/06/29 02:16:46;;;;;;;1.42;1.33;;;17.60;99.90;;;;;;5042589;28;20057;-74
2023/06/29 02:19:12;;;;;;;3.30;2.88;;;17.60;99.90;;;;;;5043031;28;20045;-75
2023/06/29 02:21:37;;;;;;;3.85;1.70;;;17.60;99.90;;;;;;5042909;28;20418;-72
2023/06/29 02:24:03;;;;;;;2.78;2.30;;;17.60;99.90;;;;;;5042431;28;20048;-72
2023/06/29 02:26:29;;;;;;;4.72;3.53;;;17.60;99.90;;;;;;5042508;28;20215;-72
2023/06/29 02:28:54;;;;;;;3.70;2.22;;;17.50;99.90;;;;;;5042726;28;20495;-73
2023/06/29 02:31:20;;;;;;;5.63;2.17;;;17.50;99.90;;;;;;5043042;28;20052;-74
2023/06/29 02:33:46;;;;;;;2.67;2.08;;;17.60;99.90;;;;;;5042338;28;20044;-73
2023/06/29 02:36:11;;;;;;;1.63;1.50;;;17.60;99.90;;;;;;5042464;28;20879;-73
2023/06/29 02:38:37;;;;;;;9.30;2.35;;;17.50;99.90;;;;;;5042615;28;20041;-73
2023/06/29 02:41:03;;;;;;;2.33;1.75;;;17.50;99.90;;;;;;5042633;28;20049;-73
2023/06/29 02:43:29;;;;;;;4.45;1.85;;;17.50;99.90;;;;;;5042710;28;20044;-73
2023/06/29 02:45:54;;;;;;;2.15;1.38;;;17.50;99.90;;;;;;5042769;28;20511;-73
2023/06/29 02:48:20;;;;;;;5.82;1.88;;;17.50;99.90;;;;;;5042702;28;20551;-73
2023/06/29 02:50:46;;;;;;;5.35;3.28;;;17.50;99.90;;;;;;5042276;28;20064;-72
2023/06/29 02:53:14;;;;;;;3.63;1.48;;;17.50;99.90;;;;;;5042400;28;20488;-73
2023/06/29 02:55:40;;;;;;;2.83;2.13;;;17.50;99.90;;;;;;5042366;28;20052;-73
2023/06/29 02:58:05;;;;;;;3.70;2.38;;;17.50;99.90;;;;;;5042492;28;20045;-73
2023/06/29 03:00:31;;;;;;;4.50;1.58;;;17.50;99.90;;;;;;5042916;28;20045;-73
2023/06/29 03:02:57;;;;;;;2.22;1.65;;;17.50;99.90;;;;;;5043162;28;20498;-74
2023/06/29 03:05:22;;;;;;;3.85;3.20;;;17.50;99.90;;;;;;5041719;28;20049;-74
2023/06/29 03:07:48;;;;;;;11.25;3.42;;;17.50;99.90;;;;;;5042332;28;20053;-73
2023/06/29 03:10:14;;;;;;;3.20;2.65;;;17.50;99.90;;;;;;5042576;28;20041;-73
2023/06/29 03:12:41;;;;;;;5.15;3.38;;;17.50;99.90;;;;;;5042190;28;20065;-73
2023/06/29 03:15:07;;;;;;;6.03;1.23;;;17.50;99.90;;;;;;5042430;28;20512;-73
2023/06/29 03:17:33;;;;;;;3.58;2.15;;;17.50;99.90;;;;;;5041721;28;20628;-73
2023/06/29 03:19:58;;;;;;;3.00;2.28;;;17.50;99.90;;;;;;5042476;28;20124;-73
2023/06/29 03:22:27;;;;;;;3.00;1.77;;;17.50;99.90;;;;;;5042999;28;20045;-73
2023/06/29 03:24:53;;;;;;;3.20;2.58;;;17.50;99.90;;;;;;5046061;28;20056;-73
2023/06/29 03:27:19;;;;;;;4.00;1.48;;;17.60;99.90;;;;;;5046149;28;20040;-74
2023/06/29 03:29:48;;;;;;;3.85;1.83;;;17.50;99.90;;;;;;5046098;28;20087;-73
2023/06/29 03:32:14;;;;;;;2.55;1.58;;;17.60;99.90;;;;;;5046029;28;20060;-74
2023/06/29 03:34:40;;;;;;;2.60;1.83;;;17.60;99.90;;;;;;5046424;28;20041;-74
2023/06/29 03:37:05;;;;;;;3.67;2.83;;;17.50;99.90;;;;;;5045520;28;20056;-74
2023/06/29 03:39:31;;;;;;;1.48;1.27;;;17.60;99.90;;;;;;5045752;28;20045;-73
2023/06/29 03:41:57;;;;;;;1.73;1.63;;;17.60;99.90;;;;;;5045733;28;20419;-74
2023/06/29 03:44:22;;;;;;;3.20;2.38;;;17.50;99.90;;;;;;5045713;28;20073;-73
2023/06/29 03:46:48;;;;;;;2.38;1.70;;;17.60;99.90;;;;;;5045515;28;20440;-73
2023/06/29 03:49:13;;;;;;;1.45;1.35;;;17.70;99.90;;;;;;5045634;28;20400;-74
2023/06/29 03:51:39;;;;;;;3.03;1.83;;;17.70;99.90;;;;;;5045539;28;20349;-74
2023/06/29 03:54:05;;;;;;;2.05;1.52;;;17.80;99.90;;;;;;5045584;28;20041;-73
2023/06/29 03:56:31;;;;;;;3.03;1.88;;;17.80;99.90;;;;;;5045679;28;20053;-74
2023/06/29 03:58:57;;;;;;;2.88;1.92;;;17.90;99.90;;;;;;5045276;28;20044;-73
2023/06/29 04:01:23;;;;;;;4.72;2.42;;;17.80;99.90;;;;;;5045624;28;20470;-73
2023/06/29 04:03:50;;;;;;;2.38;2.10;;;18.00;99.90;;;;;;5045052;28;20041;-73
2023/06/29 04:06:16;;;;;;;1.88;1.77;;;18.00;99.90;;;;;;5045222;28;20511;-74
2023/06/29 04:08:41;;;;;;;3.92;1.67;;;18.00;99.90;;;;;;5045338;28;20080;-73
2023/06/29 04:11:08;;;;;;;3.20;2.03;;;18.10;99.90;;;;;;5045172;28;20056;-74
2023/06/29 04:13:33;;;;;;;5.00;2.97;;;18.20;99.90;;;;;;5045393;28;20044;-74
2023/06/29 04:15:59;;;;;;;4.55;2.15;;;18.20;99.90;;;;;;5045475;28;20052;-74
2023/06/29 04:18:25;;;;;;;11.77;3.17;;;18.20;99.90;;;;;;5045298;28;20483;-74
2023/06/29 04:20:53;;;;;;;2.25;1.65;;;18.30;99.90;;;;;;5044954;28;20484;-74
2023/06/29 04:23:18;;;;;;;3.38;2.42;;;18.30;99.90;;;;;;5044598;28;20049;-73
2023/06/29 04:25:44;;;;;;;3.72;3.38;;;18.30;99.90;;;;;;5044601;28;20037;-73
2023/06/29 04:28:13;;;;;;;4.43;3.17;;;18.40;99.90;;;;;;5044857;28;20347;-74
2023/06/29 04:30:43;;;;;;;2.45;2.25;;;18.40;99.90;;;;;;5041624;28;20041;-74
2023/06/29 04:33:15;;;;;;;6.28;3.28;;;18.50;99.90;;;;;;5044570;28;20044;-73
2023/06/29 04:35:44;;;;;;;2.65;1.75;;;18.50;99.90;;;;;;5040529;28;20049;-74
2023/06/29 04:38:11;;;;;;;2.33;1.80;;;18.50;99.90;;;;;;5035740;28;20059;-74
2023/06/29 04:40:40;;;;;;;0.55;0.55;;;18.50;99.90;;;;;;5032943;28;20049;-74
2023/06/29 04:43:09;;;;;;;3.60;2.45;;;18.60;99.90;;;;;;5036090;28;20051;-74
2023/06/29 04:45:35;;;;;;;3.50;2.38;;;18.70;99.90;;;;;;5034590;28;20071;-74
2023/06/29 04:48:01;;;;;;;3.45;2.58;;;18.70;99.90;;;;;;5036265;28;20505;-74
2023/06/29 04:50:31;;;;;;;8.80;2.75;;;18.80;99.90;;;;;;5035774;28;20041;-74
2023/06/29 04:52:58;;;;;;;4.15;3.22;;;18.90;99.90;;;;;;5036753;28;20194;-74
2023/06/29 04:55:25;;;;;;;3.35;2.55;;;19.00;99.90;;;;;;5027086;28;20042;-74
2023/06/29 04:57:51;;;;;;;6.40;2.47;;;19.20;99.90;;;;;;5030730;28;20044;-74
2023/06/29 05:00:17;;;;;;;18.75;3.65;;;19.30;99.90;;;;;;5039581;28;20140;-74
2023/06/29 05:02:43;;;;;;;2.35;1.80;;;19.50;99.90;;;;;;5043146;28;20442;-74
2023/06/29 05:05:08;;;;;;;9.70;3.00;;;19.60;99.90;;;;;;5034447;28;20041;-74
2023/06/29 05:07:37;;;;;;;4.22;1.88;;;19.80;99.90;;;;;;5032070;28;20137;-74
2023/06/29 05:10:04;;;;;;;2.22;1.92;;;19.80;99.90;;;;;;5034673;28;20049;-74
2023/06/29 05:12:29;;;;;;;5.40;3.53;;;20.00;99.90;;;;;;5032005;28;20136;-74
2023/06/29 05:14:55;;;;;;;2.15;1.45;;;20.00;99.90;;;;;;5032915;28;20132;-74
2023/06/29 05:17:21;;;;;;;1.05;0.93;;;20.10;99.90;;;;;;5029760;28;20128;-74
2023/06/29 05:19:47;;;;;;;5.18;2.38;;;20.10;3.30;;;;;;5028694;28;20587;-74
2023/06/29 05:22:13;;;;;;;1.92;1.42;;;20.10;1.00;;;;;;5029693;28;20148;-74
2023/06/29 05:24:38;;;;;;;3.17;1.63;;;20.30;20.80;;;;;;5031056;28;20490;-74
2023/06/29 05:27:05;;;;;;;2.95;2.38;;;20.30;12.80;;;;;;5035571;28;20510;-74
2023/06/29 05:29:30;;;;;;;2.35;2.05;;;20.40;1.00;;;;;;5040677;28;20060;-74
2023/06/29 05:31:56;;;;;;;4.25;1.50;;;20.50;1.00;;;;;;5042515;28;20052;-74
2023/06/29 05:34:22;;;;;;;2.15;1.77;;;20.50;1.00;;;;;;5042927;28;20051;-74
2023/06/29 05:36:47;;;;;;;1.98;1.23;;;20.50;1.00;;;;;;5042887;28;20049;-74
2023/06/29 05:39:13;;;;;;;2.65;1.50;;;20.60;99.90;;;;;;5042772;28;20313;-74
2023/06/29 05:41:39;;;;;;;2.45;1.17;;;20.60;1.00;;;;;;5042422;28;20464;-74
2023/06/29 05:44:06;;;;;;;5.47;3.25;;;20.60;99.90;;;;;;5042409;28;20053;-74
2023/06/29 05:46:35;;;;;;;3.38;1.38;;;20.60;99.90;;;;;;5042741;28;20051;-74
2023/06/29 05:49:01;;;;;;;2.45;1.65;;;20.70;99.90;;;;;;5042280;28;20056;-74
2023/06/29 05:51:27;;;;;;;4.95;1.75;;;20.90;1.00;;;;;;5042362;28;20495;-74
2023/06/29 05:53:53;;;;;;;2.83;2.30;;;21.00;99.90;;;;;;5042624;28;20045;-74
2023/06/29 05:56:18;;;;;;;2.25;1.63;;;21.20;99.90;;;;;;5042303;28;20047;-74
2023/06/29 05:58:46;;;;;;;3.33;1.67;;;21.40;99.90;;;;;;5042561;28;20094;-74
2023/06/29 06:01:12;;;;;;;2.88;2.13;;;21.50;99.90;;;;;;5042625;28;20052;-74
2023/06/29 06:03:38;;;;;;;2.03;1.83;;;21.60;99.90;;;;;;5042478;28;20083;-74
2023/06/29 06:06:04;;;;;;;2.78;2.53;;;21.70;1.00;;;;;;5042443;28;20836;-74
2023/06/29 06:08:30;;;;;;;12.68;2.90;;;21.80;59.70;;;;;;5042301;28;20041;-74
2023/06/29 06:10:55;;;;;;;12.40;2.72;;;21.80;99.90;;;;;;5042648;28;20053;-74
2023/06/29 06:13:21;;;;;;;4.40;2.35;;;21.90;99.90;;;;;;5042985;28;20055;-74
2023/06/29 06:15:48;;;;;;;2.10;1.88;;;22.00;99.90;;;;;;5042220;28;20076;-74
2023/06/29 06:18:13;;;;;;;1.95;1.75;;;22.00;99.90;;;;;;5042029;28;20483;-74
2023/06/29 06:20:39;;;;;;;1.13;0.95;;;22.00;46.00;;;;;;5042296;28;20040;-74
2023/06/29 06:23:05;;;;;;;4.05;1.45;;;22.10;99.90;;;;;;5042172;28;20051;-74
2023/06/29 06:25:30;;;;;;;2.22;2.03;;;22.10;99.90;;;;;;5041980;28;20049;-74
2023/06/29 06:27:56;;;;;;;3.95;1.75;;;22.20;99.90;;;;;;5041917;28;20044;-74
2023/06/29 06:30:23;;;;;;;5.72;2.67;;;22.30;99.90;;;;;;5042117;28;20041;-74
2023/06/29 06:32:52;;;;;;;6.50;2.38;;;22.40;99.90;;;;;;5041924;28;20084;-74
2023/06/29 06:35:18;;;;;;;7.88;2.95;;;22.40;99.90;;;;;;5041151;28;20090;-74
2023/06/29 06:37:44;;;;;;;2.30;1.75;;;22.30;99.90;;;;;;5032016;28;20056;-74
2023/06/29 06:40:11;;;;;;;5.07;3.30;;;22.40;99.90;;;;;;5038175;28;20385;-74
2023/06/29 06:42:37;;;;;;;1.95;1.73;;;22.30;99.90;;;;;;5039374;28;20045;-74
2023/06/29 06:45:06;;;;;;;4.85;3.03;;;22.30;99.90;;;;;;5039593;28;20064;-74
2023/06/29 06:47:33;;;;;;;2.35;1.60;;;22.20;99.90;;;;;;5039688;28;20123;-74
2023/06/29 06:50:00;;;;;;;2.83;2.33;;;22.00;2.00;;;;;;5039887;28;20494;-74
2023/06/29 06:52:26;;;;;;;1.35;1.23;;;21.90;99.90;;;;;;5039119;28;20384;-74
2023/06/29 06:54:52;;;;;;;2.63;2.40;;;21.70;1.00;;;;;;5039104;28;20140;-74
2023/06/29 06:57:18;;;;;;;1.88;1.73;;;21.60;35.40;;;;;;5040245;28;20147;-74
2023/06/29 06:59:44;;;;;;;5.03;2.70;;;21.50;99.90;;;;;;5043522;28;20128;-74
2023/06/29 07:02:10;;;;;;;2.50;1.58;;;21.40;99.90;;;;;;5043590;28;20129;-74
2023/06/29 07:04:36;;;;;;;3.53;2.17;;;21.50;99.90;;;;;;5043714;28;20102;-74
2023/06/29 07:07:03;;;;;;;2.28;1.85;;;21.40;99.90;;;;;;5043539;28;20048;-74
2023/06/29 07:09:29;;;;;;;2.65;1.67;;;21.50;99.90;;;;;;5043049;28;20099;-74
2023/06/29 07:11:55;;;;;;;2.95;2.10;;;21.40;99.90;;;;;;5043448;28;20144;-74
2023/06/29 07:14:21;;;;;;;1.73;1.20;;;21.20;1.00;;;;;;5043499;28;20063;-74
2023/06/29 07:16:47;;;;;;;4.22;2.60;;;21.20;99.90;;;;;;5043072;28;20056;-74
2023/06/29 07:19:15;;;;;;;2.58;2.25;;;21.20;99.90;;;;;;5043046;28;20080;-74
2023/06/29 07:21:41;;;;;;;2.38;1.70;;;21.30;99.90;;;;;;5042831;28;20049;-74
2023/06/29 07:24:08;;;;;;;4.38;1.83;;;21.40;7.10;;;;;;5042813;28;20048;-74
2023/06/29 07:26:33;;;;;;;2.53;2.33;;;21.60;99.90;;;;;;5043013;28;20769;-74
2023/06/29 07:28:59;;;;;;;8.52;1.70;;;21.60;99.90;;;;;;5043193;28;20048;-74
2023/06/29 07:31:26;;;;;;;3.17;1.65;;;21.60;77.50;;;;;;5042799;28;20519;-74
2023/06/29 07:33:53;;;;;;;3.03;2.33;;;21.70;1.00;;;;;;5042620;28;20044;-74
2023/06/29 07:36:24;;;;;;;2.13;1.92;;;21.70;1.00;;;;;;5042659;28;20458;-74
2023/06/29 07:38:50;;;;;;;4.18;1.77;;;21.60;1.00;;;;;;5042982;28;20482;-74
2023/06/29 07:41:16;;;;;;;2.08;1.80;;;21.50;99.90;;;;;;5042492;28;20076;-73
2023/06/29 07:43:47;;;;;;;1.73;1.00;;;21.20;99.90;;;;;;5042692;28;20049;-73
2023/06/29 07:46:12;;;;;;;3.40;2.75;;;21.00;99.90;;;;;;5042740;28;20477;-74
2023/06/29 07:48:38;;;;;;;2.17;1.63;;;21.00;99.90;;;;;;5042480;28;20124;-74
2023/06/29 07:51:04;;;;;;;7.25;1.08;;;20.90;1.00;;;;;;5042933;28;20088;-74
2023/06/29 07:53:31;;;;;;;1.70;1.60;;;21.00;99.90;;;;;;5042129;28;20053;-73
2023/06/29 07:56:00;;;;;;;3.15;2.47;;;21.20;1.00;;;;;;5042381;28;20063;-74
2023/06/29 07:58:29;;;;;;;7.97;2.80;;;21.40;1.00;;;;;;5042315;28;20040;-74
2023/06/29 08:00:55;;;;;;;3.00;2.10;;;21.50;99.90;;;;;;5042219;28;20045;-75
2023/06/29 08:03:21;;;;;;;3.85;2.70;;;21.60;99.90;;;;;;5041913;28;20068;-74
2023/06/29 08:05:47;;;;;;;3.60;2.33;;;21.70;20.10;;;;;;5042279;28;20128;-74
2023/06/29 08:08:13;;;;;;;9.90;3.13;;;21.90;99.90;;;;;;5042036;28;20060;-74
2023/06/29 08:10:38;;;;;;;2.65;1.95;;;21.90;1.00;;;;;;5041318;28;20057;-75
2023/06/29 08:13:04;;;;;;;6.80;3.08;;;22.10;87.50;;;;;;5042142;28;20051;-74
2023/06/29 08:15:30;;;;;;;2.15;1.38;;;22.10;90.30;;;;;;5041982;28;20126;-74
2023/06/29 08:17:56;;;;;;;1.20;1.02;;;22.20;99.90;;;;;;5041691;28;20492;-73
2023/06/29 08:20:22;;;;;;;1.58;1.40;;;22.30;99.90;;;;;;5041866;28;20045;-74
2023/06/29 08:22:48;;;;;;;1.90;1.50;;;22.40;99.90;;;;;;5041936;28;20295;-74
2023/06/29 08:25:14;;;;;;;2.40;2.05;;;22.70;99.90;;;;;;5042464;28;20056;-74
2023/06/29 08:27:41;;;;;;;3.72;2.63;;;22.70;1.00;;;;;;5041806;28;20404;-74
2023/06/29 08:30:10;;;;;;;8.27;3.20;;;22.70;26.10;;;;;;5041727;28;20057;-74
2023/06/29 08:32:36;;;;;;;0.80;0.80;;;22.80;1.00;;;;;;5041489;28;20098;-74
2023/06/29 08:35:02;;;;;;;6.53;3.63;;;22.80;99.90;;;;;;5041777;28;20053;-74
2023/06/29 08:37:28;;;;;;;9.23;2.60;;;22.60;99.90;;;;;;5042168;28;20128;-74
2023/06/29 08:39:55;;;;;;;2.85;2.35;;;22.60;99.90;;;;;;5042069;28;20120;-74
2023/06/29 08:42:21;;;;;;;2.15;1.77;;;22.90;1.00;;;;;;5041989;28;20103;-73
2023/06/29 08:44:47;;;;;;;1.80;1.58;;;23.20;99.90;;;;;;5041793;28;20041;-73
2023/06/29 08:47:14;;;;;;;1.48;0.80;;;23.40;99.90;;;;;;5041430;28;20625;-74
2023/06/29 08:49:41;;;;;;;4.40;2.97;;;23.70;99.90;;;;;;5041466;28;20083;-74
2023/06/29 08:52:12;;;;;;;2.72;2.35;;;23.90;99.90;;;;;;5056887;28;20380;-74
2023/06/29 08:54:38;;;;;;;5.20;2.70;;;24.10;47.40;;;;;;5040895;28;20740;-74
2023/06/29 08:57:05;;;;;;;5.55;3.58;;;24.00;1.00;;;;;;5041192;28;20106;-74
2023/06/29 08:59:32;;;;;;;2.55;2.35;;;24.20;1.00;;;;;;5043561;28;20045;-73
2023/06/29 09:01:58;;;;;;;4.90;3.08;;;24.20;1.00;;;;;;5043675;28;20418;-74
2023/06/29 09:04:24;;;;;;;2.17;1.98;;;24.20;1.00;;;;;;5043480;28;20049;-74
2023/06/29 09:06:53;;;;;;;2.92;1.63;;;24.40;1.00;;;;;;5043770;28;20518;-74
2023/06/29 09:09:20;;;;;;;1.40;1.27;;;24.60;1.00;;;;;;5043633;28;20044;-73
2023/06/29 09:11:46;;;;;;;3.15;1.90;;;24.50;1.00;;;;;;5043542;28;20061;-73
2023/06/29 09:14:11;;;;;;;2.70;2.30;;;24.50;1.00;;;;;;5043337;28;20206;-73
2023/06/29 09:16:50;;;;;;;4.40;3.30;;;24.40;99.90;;;;;;5043194;28;20539;-73
2023/06/29 09:19:18;;;;;;;3.78;2.58;;;24.40;99.90;;;;;;5043825;28;20064;-73
2023/06/29 09:21:47;;;;;;;3.20;2.78;;;24.20;99.90;;;;;;5043297;28;20056;-73
2023/06/29 09:24:14;;;;;;;8.50;3.13;;;24.20;99.90;;;;;;5043262;28;20052;-74
2023/06/29 09:26:40;;;;;;;4.80;3.65;;;24.20;99.90;;;;;;5043411;28;20120;-73
2023/06/29 09:29:06;;;;;;;5.50;2.80;;;24.40;99.90;;;;;;5043079;28;20167;-73
2023/06/29 09:31:33;;;;;;;3.90;1.95;;;24.60;99.90;;;;;;5043292;28;20885;-74
2023/06/29 09:34:18;;;;;;;4.85;3.58;;;24.60;99.90;;;;;;5042754;28;20072;-74
2023/06/29 09:36:45;;;;;;;2.83;2.45;;;24.60;99.90;;;;;;5043202;28;20049;-74
2023/06/29 09:39:12;;;;;;;7.50;3.83;;;24.50;99.90;;;;;;5042806;28;20087;-74
2023/06/29 09:41:51;;;;;;;4.55;3.20;;;24.40;99.90;;;;;;5042662;28;20053;-74
2023/06/29 09:44:19;;;;;;;6.47;2.22;;;24.40;99.90;;;;;;5043014;28;20592;-73
2023/06/29 09:46:53;;;;;;;6.10;3.15;;;24.20;99.90;;;;;;5042559;28;20041;-74
2023/06/29 09:49:20;;;;;;;3.67;2.38;;;24.10;99.90;;;;;;5042919;28;20369;-74
2023/06/29 09:51:50;;;;;;;3.90;2.28;;;24.00;99.90;;;;;;5042489;28;20095;-73
2023/06/29 09:54:17;;;;;;;4.57;2.92;;;23.90;99.90;;;;;;5042573;28;20454;-74
2023/06/29 09:56:44;;;;;;;5.38;2.85;;;24.00;99.90;;;;;;5042497;28;20049;-73
2023/06/29 09:59:13;;;;;;;2.13;1.92;;;24.10;99.90;;;;;;5042824;28;20061;-73
2023/06/29 10:01:42;;;;;;;4.22;3.05;;;24.30;99.90;;;;;;5042096;28;20041;-71
2023/06/29 10:04:08;;;;;;;3.55;2.78;;;24.30;99.90;;;;;;5042246;28;20040;-71
2023/06/29 10:06:36;;;;;;;7.57;4.18;;;24.10;99.90;;;;;;5042132;28;20047;-71
2023/06/29 10:09:04;;;;;;;3.00;2.30;;;23.80;99.90;;;;;;5042250;28;20483;-73
2023/06/29 10:11:34;;;;;;;2.90;2.13;;;23.50;99.90;;;;;;5042194;28;20056;-73
2023/06/29 10:14:06;;;;;;;11.80;3.00;;;22.80;99.90;;;;;;5042295;28;20049;-73
2023/06/29 10:16:41;;;;;;;6.80;2.08;;;22.20;78.70;;;;;;5042339;28;20053;-73
2023/06/29 10:19:21;;;;;;;2.60;2.40;;;21.70;99.90;;;;;;5038826;28;20064;-74
2023/06/29 10:21:54;;;;;;;2.53;2.15;;;21.40;1.00;;;;;;5039871;28;20449;-73
2023/06/29 10:24:24;;;;;;;1.40;1.25;;;21.30;99.90;;;;;;5040410;28;20439;-73
2023/06/29 10:26:51;;;;;;;8.38;4.10;;;21.40;1.00;;;;;;5041196;28;20554;-73
2023/06/29 10:29:17;;;;;;;11.10;4.25;;;21.40;99.90;;;;;;5041267;28;20049;-73
2023/06/29 10:31:49;;;;;;;34.45;3.42;;;21.50;99.90;;;;;;5041372;28;20380;-73
2023/06/29 10:34:14;;;;;;;8.80;3.13;;;21.60;99.90;;;;;;5042113;28;20531;-73
2023/06/29 10:36:50;;;;;;;6.32;2.80;;;21.60;99.90;;;;;;5041762;28;20120;-73
2023/06/29 10:39:38;;;;;;;7.72;2.83;;;21.80;99.90;;;;;;5041744;28;20399;-73
2023/06/29 10:42:22;;;;;;;2.20;1.98;;;21.80;99.90;;;;;;5041490;28;20519;-73
2023/06/29 10:44:48;;;;;;;4.38;3.20;;;21.80;99.90;;;;;;5042174;28;20057;-73
2023/06/29 10:47:37;;;;;;;3.17;2.13;;;21.90;67.50;;;;;;5042142;28;20076;-73
2023/06/29 10:50:11;;;;;;;2.30;1.88;;;21.90;99.90;;;;;;5042294;28;20057;-73
2023/06/29 10:52:38;;;;;;;4.72;1.25;;;22.00;91.00;;;;;;5041827;28;20045;-73
2023/06/29 10:55:13;;;;;;;2.13;1.83;;;22.10;25.90;;;;;;5024431;28;20045;-73
2023/06/29 10:57:38;;;;;;;3.15;1.80;;;22.20;1.00;;;;;;5040492;28;20549;-73
2023/06/29 11:00:05;;;;;;;2.13;1.63;;;22.30;99.90;;;;;;5042270;28;20044;-73
2023/06/29 11:02:31;;;;;;;6.07;3.30;;;22.40;99.90;;;;;;5041615;28;20051;-73
2023/06/29 11:04:57;;;;;;;4.72;2.63;;;22.60;99.90;;;;;;5041845;28;20049;-73
2023/06/29 11:07:25;;;;;;;3.63;2.05;;;23.00;66.30;;;;;;5042096;28;20037;-73
2023/06/29 11:10:02;;;;;;;8.48;2.42;;;23.60;1.00;;;;;;5041904;28;20045;-71
2023/06/29 11:12:28;;;;;;;4.28;2.15;;;24.20;1.00;;;;;;5041221;28;20057;-73
2023/06/29 11:14:56;;;;;;;2.65;1.92;;;25.00;99.90;;;;;;5041841;28;20115;-73
2023/06/29 11:17:25;;;;;;;6.93;2.90;;;25.80;99.90;;;;;;5041512;28;20052;-73
2023/06/29 11:19:51;;;;;;;6.07;4.10;;;26.00;99.90;;;;;;5041826;28;20045;-73
2023/06/29 11:22:20;;;;;;;4.22;2.05;;;26.00;99.90;;;;;;5041676;28;20048;-73
2023/06/29 11:24:46;;;;;;;1.75;1.42;;;26.10;99.90;;;;;;5041558;28;20051;-73
2023/06/29 11:27:16;;;;;;;4.15;2.80;;;25.90;72.80;;;;;;5041685;28;20045;-73
2023/06/29 11:29:42;;;;;;;4.38;3.45;;;25.80;86.40;;;;;;5041295;28;20072;-73
2023/06/29 11:32:18;;;;;;;3.13;2.38;;;25.90;83.30;;;;;;5041271;28;20142;-73
2023/06/29 11:34:44;;;;;;;2.90;1.83;;;25.80;71.10;;;;;;5041367;28;20064;-73
2023/06/29 11:37:10;;;;;;;3.13;2.13;;;25.90;86.40;;;;;;5041526;28;20516;-73
2023/06/29 11:39:35;;;;;;;5.88;1.67;;;26.00;61.60;;;;;;5041194;28;20047;-73
2023/06/29 11:42:08;;;;;;;7.68;3.70;;;26.10;66.80;;;;;;5041316;28;20482;-73
2023/06/29 11:44:34;;;;;;;2.33;1.85;;;26.20;45.50;;;;;;5044063;28;20163;-73
2023/06/29 11:47:00;;;;;;;12.30;2.63;;;26.10;35.90;;;;;;5045081;28;20060;-73
2023/06/29 11:49:26;;;;;;;5.13;2.15;;;25.90;1.00;;;;;;5045418;28;20053;-73
2023/06/29 11:51:52;;;;;;;3.58;2.25;;;25.70;1.00;;;;;;5044718;28;20045;-73
2023/06/29 11:54:17;;;;;;;2.35;2.05;;;25.60;1.00;;;;;;5044672;28;20057;-73
2023/06/29 11:56:43;;;;;;;3.97;2.80;;;25.70;1.00;;;;;;5044882;28;20517;-72
2023/06/29 11:59:10;;;;;;;1.98;1.75;;;25.70;1.00;;;;;;5044735;28;20047;-73
2023/06/29 12:01:39;;;;;;;3.35;2.75;;;25.70;1.00;;;;;;5044423;28;20114;-73
2023/06/29 12:04:06;;;;;;;1.65;1.55;;;25.90;1.00;;;;;;5044638;28;20045;-73
2023/06/29 12:06:52;;;;;;;4.68;2.45;;;26.20;19.30;;;;;;5044816;28;21028;-73
2023/06/29 12:09:18;;;;;;;6.47;3.63;;;26.40;18.10;;;;;;5044425;28;20464;-73
2023/06/29 12:11:44;;;;;;;5.10;2.97;;;26.30;1.00;;;;;;5044064;28;20466;-73
2023/06/29 12:14:10;;;;;;;4.25;2.00;;;26.40;15.00;;;;;;5044501;28;20053;-73
2023/06/29 12:16:42;;;;;;;2.63;2.22;;;26.60;11.40;;;;;;5044448;28;20055;-73
2023/06/29 12:19:12;;;;;;;1.42;1.33;;;26.40;1.00;;;;;;5044802;28;20057;-73
2023/06/29 12:21:37;;;;;;;4.03;2.50;;;26.40;1.00;;;;;;5043903;28;20644;-73
2023/06/29 12:24:04;;;;;;;7.90;2.05;;;26.50;1.00;;;;;;5044589;28;20120;-73
2023/06/29 12:26:30;;;;;;;4.30;2.50;;;26.90;1.00;;;;;;5044434;28;20402;-73
2023/06/29 12:28:56;;;;;;;2.42;1.65;;;27.50;9.80;;;;;;5044287;28;20045;-73
2023/06/29 12:31:28;;;;;;;5.78;3.55;;;28.30;45.30;;;;;;5047559;28;20499;-73
2023/06/29 12:33:54;;;;;;;3.13;2.63;;;29.60;27.70;;;;;;5063750;28;20040;-73
2023/06/29 12:36:20;;;;;;;5.65;3.90;;;30.30;46.80;;;;;;5064193;28;20178;-73
2023/06/29 12:38:47;;;;;;;6.70;3.45;;;30.80;18.40;;;;;;5063889;28;20047;-74
2023/06/29 12:41:13;;;;;;;2.38;1.92;;;31.40;5.20;;;;;;5064283;28;20422;-73
2023/06/29 12:43:39;;;;;;;2.95;2.60;;;32.10;1.00;;;;;;5063937;28;20044;-73
2023/06/29 12:46:04;;;;;;;3.88;2.20;;;32.50;1.00;;;;;;5061549;28;20048;-73
2023/06/29 12:48:30;;;;;;;5.55;3.55;;;32.90;1.00;;;;;;5063670;28;20072;-73